Time;durP1;ratioP1;P1;durP2;ratioP2;P2;SDS_P1;SDS_P2;PMS_P1;PMS_P2;Temp;Humidity;BMP_temperature;BMP_pressure;BME280_temperature;BME280_humidity;BME280_pressure;Samples;Min_cycle;Max_cycle;Signal;HPM_P1;HPM_P2
2021/07/19 00:00:31;;;;;;;4.85;2.60;;;;;;;21.50;63.09;100111.22;2209383;40;20042;-85
2021/07/19 00:02:03;;;;;;;4.45;2.30;;;;;;;21.48;63.21;100110.59;2209373;40;20058;-85
2021/07/19 00:03:35;;;;;;;4.45;2.40;;;;;;;21.45;63.12;100108.31;2209221;40;20053;-87
2021/07/19 00:05:08;;;;;;;6.38;2.90;;;;;;;21.40;63.42;100110.84;2209681;40;20026;-84
2021/07/19 00:06:41;;;;;;;5.35;2.58;;;;;;;21.35;63.35;100111.47;2211046;40;20025;-84
2021/07/19 00:08:13;;;;;;;5.22;2.60;;;;;;;21.32;63.40;100109.19;2203141;40;20567;-85
2021/07/19 00:09:45;;;;;;;5.35;2.92;;;;;;;21.32;63.41;100111.91;2204462;40;20026;-85
2021/07/19 00:11:16;;;;;;;5.95;2.90;;;;;;;21.30;63.35;100112.13;2215464;40;20135;-85
2021/07/19 00:12:49;;;;;;;5.10;2.65;;;;;;;21.27;63.55;100109.00;2214756;40;20484;-84
2021/07/19 00:14:21;;;;;;;5.00;2.80;;;;;;;21.17;63.85;100109.44;2209337;40;20710;-86
2021/07/19 00:15:53;;;;;;;5.63;3.10;;;;;;;21.15;63.77;100098.78;2209425;40;20042;-84
2021/07/19 00:17:30;;;;;;;4.25;2.33;;;;;;;21.12;63.70;100109.25;2211456;40;20026;-86
2021/07/19 00:19:03;;;;;;;6.45;2.80;;;;;;;21.13;63.63;100100.06;2209395;40;20086;-85
2021/07/19 00:20:35;;;;;;;4.68;2.25;;;;;;;21.14;63.57;100107.16;2213167;40;20162;-86
2021/07/19 00:22:07;;;;;;;7.75;2.60;;;;;;;21.13;63.58;100105.50;2215458;40;20030;-87
2021/07/19 00:23:39;;;;;;;5.95;2.65;;;;;;;21.12;63.65;100101.09;2214019;40;21663;-86
2021/07/19 00:25:17;;;;;;;4.57;2.50;;;;;;;21.11;63.62;100107.59;2203277;40;20101;-86
2021/07/19 00:26:49;;;;;;;4.88;2.75;;;;;;;21.08;63.62;100105.28;2203157;40;20074;-84
2021/07/19 00:28:21;;;;;;;6.40;3.60;;;;;;;21.06;63.79;100110.13;2203140;40;20066;-83
2021/07/19 00:29:52;;;;;;;4.38;2.60;;;;;;;21.04;63.98;100105.72;2203289;40;20038;-86
2021/07/19 00:31:24;;;;;;;5.72;3.15;;;;;;;21.04;63.82;100103.00;2203180;40;20042;-86
2021/07/19 00:32:55;;;;;;;5.30;2.85;;;;;;;21.00;64.08;100111.78;2203149;40;20532;-84
2021/07/19 00:34:30;;;;;;;4.43;2.55;;;;;;;20.97;64.03;100109.50;2207958;40;20034;-85
2021/07/19 00:36:02;;;;;;;6.05;2.30;;;;;;;20.89;64.62;100110.53;2209659;40;20081;-84
2021/07/19 00:37:36;;;;;;;5.45;3.40;;;;;;;20.73;65.20;100109.94;2209829;40;20034;-86
2021/07/19 00:39:11;;;;;;;6.15;3.42;;;;;;;20.57;65.58;100113.06;2209202;40;20039;-84
2021/07/19 00:40:43;;;;;;;6.93;3.30;;;;;;;20.50;66.01;100106.81;2209275;40;20030;-85
2021/07/19 00:42:14;;;;;;;5.70;2.78;;;;;;;20.42;66.44;100118.69;2209383;40;20204;-83
2021/07/19 00:43:45;;;;;;;6.60;2.65;;;;;;;20.37;66.74;100108.47;2209206;40;20093;-84
2021/07/19 00:45:19;;;;;;;5.88;3.00;;;;;;;20.37;66.72;100115.75;2209047;40;20041;-86
2021/07/19 00:46:51;;;;;;;4.63;2.88;;;;;;;20.36;66.74;100111.38;2209097;40;20043;-85
2021/07/19 00:48:23;;;;;;;4.85;2.95;;;;;;;20.34;66.97;100119.72;2203090;40;20055;-83
2021/07/19 00:49:55;;;;;;;4.80;3.30;;;;;;;20.24;67.26;100113.88;2203160;40;20038;-84
2021/07/19 00:51:27;;;;;;;5.65;3.03;;;;;;;20.06;67.77;100112.59;2209172;40;20049;-84
2021/07/19 00:53:01;;;;;;;4.70;2.50;;;;;;;19.92;67.99;100117.16;2209180;40;20092;-84
2021/07/19 00:54:34;;;;;;;5.55;2.83;;;;;;;19.87;68.08;100113.38;2209165;40;20158;-84
2021/07/19 00:56:07;;;;;;;7.57;2.92;;;;;;;19.79;68.38;100112.50;2209226;40;20038;-85
2021/07/19 00:57:40;;;;;;;6.55;3.00;;;;;;;19.72;68.91;100108.94;2209177;40;20042;-84
2021/07/19 00:59:15;;;;;;;8.18;3.55;;;;;;;19.68;68.77;100104.94;2209150;40;20037;-86
2021/07/19 01:00:53;;;;;;;4.80;2.75;;;;;;;19.67;69.10;100105.16;2204331;40;20712;-85
2021/07/19 01:02:24;;;;;;;5.03;2.78;;;;;;;19.64;69.16;100095.56;2209137;40;20038;-85
2021/07/19 01:03:59;;;;;;;5.05;2.70;;;;;;;19.68;68.71;100099.53;2209085;40;20073;-85
2021/07/19 01:05:30;;;;;;;4.70;2.47;;;;;;;19.74;68.48;100101.41;2203003;40;20146;-85
2021/07/19 01:07:04;;;;;;;6.65;3.33;;;;;;;19.78;68.46;100101.84;2202971;40;20042;-85
2021/07/19 01:08:39;;;;;;;8.23;3.00;;;;;;;19.78;68.49;100102.69;2203013;40;20229;-85
2021/07/19 01:10:14;;;;;;;4.70;2.60;;;;;;;19.83;68.36;100109.38;2203476;40;20055;-86
2021/07/19 01:11:47;;;;;;;5.78;2.40;;;;;;;19.82;68.29;100105.81;2203835;40;20106;-86
2021/07/19 01:13:18;;;;;;;4.93;2.70;;;;;;;19.84;68.14;100102.91;2205269;40;20058;-85
2021/07/19 01:14:50;;;;;;;6.05;2.80;;;;;;;19.90;67.96;100105.66;2209973;40;20038;-85
2021/07/19 01:16:23;;;;;;;5.72;2.70;;;;;;;19.87;68.19;100105.22;2210064;40;20033;-85
2021/07/19 01:17:54;;;;;;;5.88;2.33;;;;;;;19.84;67.94;100098.31;2210089;40;20179;-84
2021/07/19 01:19:30;;;;;;;6.45;2.72;;;;;;;19.87;68.26;100108.81;2210022;40;20097;-84
2021/07/19 01:21:40;;;;;;;5.03;2.80;;;;;;;19.87;68.43;100107.94;2210306;40;20026;-88
2021/07/19 01:23:34;;;;;;;6.68;3.33;;;;;;;19.85;68.52;100104.56;2188687;40;20097;-86
2021/07/19 01:25:25;;;;;;;6.53;2.50;;;;;;;19.80;68.75;100108.75;2208450;40;20022;-85
2021/07/19 01:27:45;;;;;;;5.95;2.80;;;;;;;19.75;68.72;100105.78;2210058;40;20038;-85
2021/07/19 01:29:21;;;;;;;4.30;2.58;;;;;;;19.73;68.80;100107.91;2185143;40;20043;-85
2021/07/19 01:30:55;;;;;;;4.72;2.53;;;;;;;19.71;68.70;100104.53;2185758;40;20028;-84
2021/07/19 01:32:28;;;;;;;5.63;2.40;;;;;;;19.79;68.58;100106.22;2203859;40;20043;-87
2021/07/19 01:34:04;;;;;;;5.97;2.60;;;;;;;19.81;68.70;100104.13;2203884;40;20035;-84
2021/07/19 01:35:37;;;;;;;5.53;3.20;;;;;;;19.83;68.52;100107.50;2203759;40;20050;-86
2021/07/19 01:37:12;;;;;;;6.85;2.83;;;;;;;19.78;68.68;100099.97;2203789;40;20038;-87
2021/07/19 01:38:44;;;;;;;8.68;2.85;;;;;;;19.72;68.81;100105.38;2209825;40;20042;-86
2021/07/19 01:40:17;;;;;;;5.55;2.55;;;;;;;19.71;68.67;100106.41;2203936;40;20039;-86
2021/07/19 01:41:50;;;;;;;5.07;2.78;;;;;;;19.67;68.79;100102.44;2203227;40;20058;-84
2021/07/19 01:43:22;;;;;;;7.90;3.00;;;;;;;19.58;68.89;100110.75;2202619;40;20034;-84
2021/07/19 01:44:56;;;;;;;4.90;2.40;;;;;;;19.52;69.25;100116.16;2201818;40;20039;-84
2021/07/19 01:46:29;;;;;;;5.50;3.03;;;;;;;19.54;69.06;100108.66;2201643;40;20051;-84
2021/07/19 01:48:01;;;;;;;5.00;2.60;;;;;;;19.56;68.95;100101.97;2200803;40;20043;-85
2021/07/19 01:49:35;;;;;;;5.78;2.70;;;;;;;19.54;69.29;100105.94;2201539;40;20042;-84
2021/07/19 01:51:08;;;;;;;5.78;2.80;;;;;;;19.54;69.29;100103.22;2201415;40;20043;-84
2021/07/19 01:52:39;;;;;;;6.05;2.50;;;;;;;19.48;69.17;100100.28;2201347;40;20035;-83
2021/07/19 01:54:12;;;;;;;5.43;2.85;;;;;;;19.49;69.26;100104.66;2199913;40;20043;-83
2021/07/19 01:55:46;;;;;;;6.38;3.30;;;;;;;19.43;69.50;100100.06;2200241;40;20023;-83
2021/07/19 01:57:17;;;;;;;5.88;3.10;;;;;;;19.43;69.31;100102.78;2205512;40;20037;-85
2021/07/19 01:58:50;;;;;;;5.43;2.17;;;;;;;19.43;69.24;100104.63;2209773;40;20045;-82
2021/07/19 02:00:23;;;;;;;5.13;2.67;;;;;;;19.44;69.49;100099.03;2215953;40;20053;-82
2021/07/19 02:01:56;;;;;;;5.60;2.60;;;;;;;19.47;69.23;100097.78;2207993;40;20035;-81
2021/07/19 02:03:28;;;;;;;6.78;2.90;;;;;;;19.48;69.11;100099.44;2209795;40;20046;-83
2021/07/19 02:04:59;;;;;;;5.43;3.10;;;;;;;19.52;69.20;100099.88;2208873;40;20296;-85
2021/07/19 02:06:32;;;;;;;4.55;2.60;;;;;;;19.55;69.27;100105.72;2209711;40;20042;-85
2021/07/19 02:08:05;;;;;;;5.07;2.58;;;;;;;19.57;68.98;100097.38;2209632;40;20181;-84
2021/07/19 02:09:37;;;;;;;3.92;2.42;;;;;;;19.60;69.32;100097.00;2209249;40;20116;-84
2021/07/19 02:11:09;;;;;;;5.25;2.50;;;;;;;19.60;69.13;100105.94;2206643;40;20042;-85
2021/07/19 02:12:43;;;;;;;5.28;2.63;;;;;;;19.59;69.16;100104.31;2207164;40;20035;-83
2021/07/19 02:14:16;;;;;;;7.03;3.30;;;;;;;19.61;69.00;100098.66;2206953;40;20038;-83
2021/07/19 02:15:53;;;;;;;5.63;3.20;;;;;;;19.57;69.21;100103.66;2206905;40;20038;-84
2021/07/19 02:17:24;;;;;;;4.78;2.72;;;;;;;19.51;69.25;100100.91;2207813;40;20038;-84
2021/07/19 02:18:57;;;;;;;4.88;2.45;;;;;;;19.48;69.88;100110.28;2208197;40;20438;-86
2021/07/19 02:20:29;;;;;;;7.72;2.85;;;;;;;19.45;69.81;100111.53;2207790;40;20041;-83
2021/07/19 02:22:02;;;;;;;5.40;3.03;;;;;;;19.46;69.73;100117.78;2207215;40;20050;-84
2021/07/19 02:23:34;;;;;;;5.20;3.15;;;;;;;19.45;69.81;100105.28;2207389;40;20038;-85
2021/07/19 02:25:08;;;;;;;4.97;2.65;;;;;;;19.40;69.94;100110.47;2207134;40;20047;-86
2021/07/19 02:26:40;;;;;;;5.47;2.60;;;;;;;19.38;69.94;100104.41;2207966;40;20083;-85
2021/07/19 02:28:12;;;;;;;5.18;3.00;;;;;;;19.38;69.56;100115.25;2207568;40;20037;-87
2021/07/19 02:29:45;;;;;;;5.57;2.72;;;;;;;19.39;69.91;100106.91;2207834;40;20389;-85
2021/07/19 02:31:20;;;;;;;4.80;2.92;;;;;;;19.40;69.55;100111.28;2208922;40;20068;-85
2021/07/19 02:32:55;;;;;;;5.20;3.25;;;;;;;19.39;69.73;100117.75;2209673;40;20033;-86
2021/07/19 02:34:28;;;;;;;17.40;3.25;;;;;;;19.36;69.60;100107.34;2208095;40;20035;-84
2021/07/19 02:36:00;;;;;;;5.75;2.92;;;;;;;19.34;69.27;100109.41;2199616;40;20046;-82
2021/07/19 02:37:36;;;;;;;4.90;2.80;;;;;;;19.31;69.58;100110.66;2199855;40;20313;-84
2021/07/19 02:39:10;;;;;;;6.05;2.85;;;;;;;19.32;69.54;100104.16;2199819;40;20050;-83
2021/07/19 02:40:43;;;;;;;6.80;2.80;;;;;;;19.32;69.56;100112.28;2199639;40;20038;-83
2021/07/19 02:42:15;;;;;;;5.13;2.55;;;;;;;19.31;69.74;100110.66;2199508;40;20042;-82
2021/07/19 02:43:48;;;;;;;5.07;2.50;;;;;;;19.31;69.82;100117.91;2199154;40;20303;-84
2021/07/19 02:45:21;;;;;;;5.45;2.45;;;;;;;19.29;69.67;100111.84;2199321;40;20205;-84
2021/07/19 02:46:56;;;;;;;5.13;2.72;;;;;;;19.35;69.65;100118.34;2199739;40;20497;-85
2021/07/19 02:48:30;;;;;;;4.78;2.65;;;;;;;19.35;69.53;100121.91;2199881;40;20039;-83
2021/07/19 02:50:05;;;;;;;4.25;2.63;;;;;;;19.32;69.57;100114.19;2199958;40;20043;-83
2021/07/19 02:51:38;;;;;;;5.30;2.65;;;;;;;19.24;69.73;100112.47;2200322;40;20093;-86
2021/07/19 02:53:12;;;;;;;5.95;2.90;;;;;;;19.13;70.07;100103.03;2200056;40;20042;-86
2021/07/19 02:54:43;;;;;;;5.57;3.03;;;;;;;19.07;70.22;100111.97;2208515;40;20026;-82
2021/07/19 02:56:18;;;;;;;6.88;3.10;;;;;;;18.99;70.53;100114.81;2215840;40;20054;-83
2021/07/19 02:57:49;;;;;;;7.15;2.90;;;;;;;18.86;71.00;100110.13;2215811;40;20037;-80
2021/07/19 02:59:23;;;;;;;5.75;2.70;;;;;;;18.76;71.42;100117.75;2211007;40;20062;-81
2021/07/19 03:00:55;;;;;;;5.45;3.13;;;;;;;18.64;71.60;100114.75;2210444;40;20122;-81
2021/07/19 03:02:28;;;;;;;5.40;2.95;;;;;;;18.58;71.84;100102.81;2215814;40;20034;-81
2021/07/19 03:04:02;;;;;;;4.90;2.85;;;;;;;18.52;72.36;100111.75;2215837;40;20030;-81
2021/07/19 03:05:37;;;;;;;5.10;2.65;;;;;;;18.50;72.02;100102.97;2207882;40;20050;-83
2021/07/19 03:07:11;;;;;;;5.45;2.72;;;;;;;18.48;72.45;100105.03;2209691;40;20041;-81
2021/07/19 03:08:44;;;;;;;5.00;2.92;;;;;;;18.45;72.70;100106.25;2209454;40;20031;-82
2021/07/19 03:10:20;;;;;;;7.93;3.00;;;;;;;18.45;72.44;100106.25;2209197;40;20070;-85
2021/07/19 03:11:53;;;;;;;5.57;3.40;;;;;;;18.40;72.58;100106.03;2206443;40;20062;-85
2021/07/19 03:13:29;;;;;;;7.80;3.17;;;;;;;18.35;72.91;100100.34;2202566;40;20038;-85
2021/07/19 03:15:01;;;;;;;6.95;3.17;;;;;;;18.35;72.79;100103.91;2203191;40;20038;-84
2021/07/19 03:16:33;;;;;;;6.55;3.35;;;;;;;18.33;72.86;100102.41;2203442;40;20093;-85
2021/07/19 03:18:09;;;;;;;5.53;3.08;;;;;;;18.30;73.43;100100.09;2204523;40;20067;-86
2021/07/19 03:19:42;;;;;;;4.55;2.72;;;;;;;18.32;73.30;100108.88;2202823;40;20043;-87
2021/07/19 03:21:16;;;;;;;6.25;2.83;;;;;;;18.31;72.99;100104.50;2200854;40;20111;-83
2021/07/19 03:22:52;;;;;;;5.47;3.08;;;;;;;18.31;73.34;100099.06;2201210;40;20047;-83
2021/07/19 03:24:25;;;;;;;6.63;2.75;;;;;;;18.34;72.87;100095.97;2201134;40;20039;-84
2021/07/19 03:26:00;;;;;;;5.28;2.97;;;;;;;18.38;72.68;100105.38;2201347;40;20050;-84
2021/07/19 03:27:31;;;;;;;5.13;3.10;;;;;;;18.40;72.82;100104.16;2201208;40;20469;-84
2021/07/19 03:29:04;;;;;;;4.88;2.50;;;;;;;18.44;72.32;100103.75;2200913;40;20081;-83
2021/07/19 03:30:36;;;;;;;5.50;3.03;;;;;;;18.47;72.46;100097.94;2200481;40;20039;-83
2021/07/19 03:32:09;;;;;;;5.43;3.03;;;;;;;18.50;72.14;100108.38;2200065;40;20027;-84
2021/07/19 03:33:43;;;;;;;5.20;2.85;;;;;;;18.52;72.49;100103.63;2199607;40;20043;-82
2021/07/19 03:35:17;;;;;;;5.95;2.85;;;;;;;18.53;72.32;100100.72;2199750;40;20166;-84
2021/07/19 03:42:16;;;;;;;6.13;3.53;;;;;;;18.67;71.73;100114.38;2168711;41;20053;-82
2021/07/19 03:43:48;;;;;;;6.95;3.53;;;;;;;18.64;71.62;100106.63;2191416;40;20039;-86
2021/07/19 03:45:21;;;;;;;7.50;3.35;;;;;;;18.65;71.88;100111.00;2205569;40;20117;-82
2021/07/19 03:46:53;;;;;;;4.80;2.83;;;;;;;18.65;72.01;100119.13;2209596;40;20034;-84
2021/07/19 03:48:25;;;;;;;7.45;3.50;;;;;;;18.63;71.92;100113.06;2209394;40;20027;-81
2021/07/19 03:49:59;;;;;;;4.93;2.85;;;;;;;18.62;71.98;100124.94;2203449;40;20059;-83
2021/07/19 03:51:32;;;;;;;8.68;3.72;;;;;;;18.63;72.08;100115.78;2202838;40;20034;-82
2021/07/19 03:53:06;;;;;;;5.40;3.08;;;;;;;18.61;72.40;100123.28;2200215;40;20438;-83
2021/07/19 03:54:37;;;;;;;5.78;2.63;;;;;;;18.60;72.31;100113.47;2200257;40;20035;-82
2021/07/19 03:56:10;;;;;;;9.73;3.42;;;;;;;18.61;72.18;100113.28;2200628;40;20046;-83
2021/07/19 03:57:43;;;;;;;7.15;3.42;;;;;;;18.62;72.47;100112.25;2199726;40;20035;-83
2021/07/19 03:59:17;;;;;;;8.57;3.28;;;;;;;18.58;72.33;100110.94;2200023;40;20648;-82
2021/07/19 04:00:51;;;;;;;5.72;2.88;;;;;;;18.57;72.33;100108.44;2200340;40;20043;-83
2021/07/19 04:02:23;;;;;;;7.63;3.15;;;;;;;18.54;72.49;100107.81;2200908;40;20043;-83
2021/07/19 04:04:04;;;;;;;5.85;3.25;;;;;;;18.54;72.31;100118.63;2199920;40;20129;-82
2021/07/19 04:05:40;;;;;;;;;;;;;;;18.49;72.66;100120.25;2199722;40;20407;-82
2021/07/19 04:07:14;;;;;;;8.85;4.38;;;;;;;18.51;72.62;100124.44;2199217;40;19936;-81
2021/07/19 04:08:47;;;;;;;6.00;2.95;;;;;;;18.51;72.69;100118.19;2198431;40;20411;-81
2021/07/19 04:10:21;;;;;;;8.63;3.33;;;;;;;18.53;72.75;100116.94;2198465;40;20415;-84
2021/07/19 04:11:55;;;;;;;5.80;3.30;;;;;;;18.54;72.66;100125.94;2198465;40;20039;-82
2021/07/19 04:24:20;;;;;;;5.55;2.90;;;;;;;18.62;72.48;100127.63;2201357;40;20163;-84
2021/07/19 04:25:51;;;;;;;6.15;3.55;;;;;;;18.63;72.69;100123.91;2190226;40;20035;-83
2021/07/19 04:27:23;;;;;;;7.80;3.72;;;;;;;18.62;72.75;100128.50;2188133;40;20047;-83
2021/07/19 04:28:56;;;;;;;6.30;3.65;;;;;;;18.58;72.47;100123.66;2188897;40;20036;-83
2021/07/19 04:30:33;;;;;;;7.40;3.50;;;;;;;18.59;72.78;100128.03;2187738;40;20096;-85
2021/07/19 04:32:05;;;;;;;8.13;4.03;;;;;;;18.61;72.77;100132.22;2187896;40;20055;-85
2021/07/19 04:33:37;;;;;;;8.40;3.95;;;;;;;18.62;72.53;100128.50;2187998;40;20032;-82
2021/07/19 04:35:14;;;;;;;9.23;4.45;;;;;;;18.62;72.52;100124.94;2188483;40;20047;-82
2021/07/19 04:36:45;;;;;;;11.18;5.10;;;;;;;18.62;72.86;100133.03;2187779;40;20051;-83
2021/07/19 04:38:19;;;;;;;10.25;3.90;;;;;;;18.61;72.92;100121.41;2188890;40;20036;-85
2021/07/19 04:39:53;;;;;;;9.07;4.22;;;;;;;18.69;72.73;100123.97;2190925;40;20036;-83
2021/07/19 04:41:25;;;;;;;9.30;4.35;;;;;;;18.74;72.39;100120.66;2190918;40;20140;-86
2021/07/19 04:42:56;;;;;;;8.68;4.43;;;;;;;18.75;72.59;100116.91;2192027;40;20052;-86
2021/07/19 04:44:28;;;;;;;12.38;4.38;;;;;;;18.75;72.37;100108.81;2197035;40;20028;-82
2021/07/19 04:45:59;;;;;;;10.23;5.20;;;;;;;18.79;72.43;100115.50;2197890;40;20035;-81
2021/07/19 04:47:30;;;;;;;11.38;4.75;;;;;;;18.73;72.61;100113.56;2197943;40;20039;-82
2021/07/19 04:49:02;;;;;;;6.97;4.70;;;;;;;18.78;72.31;100108.41;2197956;40;20042;-81
2021/07/19 04:50:34;;;;;;;13.75;5.57;;;;;;;18.77;72.15;100114.84;2198271;40;20043;-84
2021/07/19 04:52:06;;;;;;;12.35;5.80;;;;;;;18.69;72.51;100115.84;2196449;40;20056;-82
2021/07/19 04:53:38;;;;;;;7.07;4.32;;;;;;;18.65;72.99;100120.00;2193313;40;20071;-83
2021/07/19 05:22:54;;;;;;;6.05;3.50;;;;;;;19.12;71.30;100130.34;2155700;41;20042;-87
2021/07/19 05:24:33;;;;;;;7.40;3.97;;;;;;;19.19;71.36;100128.50;2152760;41;20038;-84
2021/07/19 05:26:05;;;;;;;8.40;4.60;;;;;;;19.21;71.22;100123.72;2152588;41;20035;-82
2021/07/19 05:27:37;;;;;;;8.45;4.57;;;;;;;19.25;71.23;100126.88;2158767;41;20389;-84
2021/07/19 05:29:09;;;;;;;11.02;4.38;;;;;;;19.25;71.30;100122.28;2186587;40;20036;-85
2021/07/19 05:30:43;;;;;;;13.35;4.57;;;;;;;19.28;71.15;100126.44;2190957;40;20035;-84
2021/07/19 05:32:15;;;;;;;12.82;4.43;;;;;;;19.34;70.77;100125.66;2191241;40;20047;-85
2021/07/19 05:33:48;;;;;;;8.80;4.30;;;;;;;19.39;70.94;100128.59;2190348;40;20044;-84
2021/07/19 05:35:19;;;;;;;12.50;4.70;;;;;;;19.42;70.59;100128.19;2191858;40;20040;-82
2021/07/19 05:36:51;;;;;;;10.88;5.30;;;;;;;19.39;70.79;100128.59;2201960;40;20030;-83
2021/07/19 05:38:24;;;;;;;6.82;3.95;;;;;;;19.39;70.74;100130.47;2197860;40;20042;-85
2021/07/19 05:39:56;;;;;;;8.77;4.97;;;;;;;19.42;70.62;100130.91;2197411;40;20031;-84
2021/07/19 05:41:28;;;;;;;11.30;5.60;;;;;;;19.42;70.65;100125.50;2194034;40;20043;-83
2021/07/19 05:43:00;;;;;;;13.55;5.30;;;;;;;19.40;70.70;100129.44;2193609;40;20038;-83
2021/07/19 05:44:32;;;;;;;9.05;4.63;;;;;;;19.40;70.52;100124.03;2193648;40;20047;-85
2021/07/19 05:46:04;;;;;;;11.30;4.78;;;;;;;19.41;70.53;100121.09;2193726;40;20034;-84
2021/07/19 05:47:35;;;;;;;8.82;3.85;;;;;;;19.51;70.38;100128.03;2187655;40;20040;-83
2021/07/19 05:49:07;;;;;;;14.38;5.10;;;;;;;19.56;70.05;100115.53;2187547;40;20048;-84
2021/07/19 05:50:40;;;;;;;10.60;4.78;;;;;;;19.60;69.99;100122.22;2189524;40;20055;-86
2021/07/19 05:52:12;;;;;;;7.15;3.85;;;;;;;19.61;70.03;100126.59;2189769;40;20039;-85
2021/07/19 05:53:44;;;;;;;16.60;6.30;;;;;;;19.68;69.81;100121.22;2188618;40;20309;-84
2021/07/19 05:55:16;;;;;;;7.75;4.43;;;;;;;19.72;69.83;100110.78;2188819;40;20043;-84
2021/07/19 05:56:48;;;;;;;7.68;4.57;;;;;;;19.76;69.80;100118.31;2187966;40;20305;-84
2021/07/19 05:58:20;;;;;;;13.05;5.00;;;;;;;19.85;69.50;100118.13;2189342;40;20040;-85
2021/07/19 05:59:55;;;;;;;10.65;4.88;;;;;;;19.91;69.33;100120.91;2188283;40;20052;-83
2021/07/19 06:01:27;;;;;;;11.07;5.03;;;;;;;19.94;69.28;100114.22;2188269;40;20115;-86
2021/07/19 06:02:59;;;;;;;10.10;4.65;;;;;;;19.96;68.96;100112.16;2187628;40;20309;-84
2021/07/19 06:04:31;;;;;;;10.70;4.80;;;;;;;19.98;69.19;100109.25;2188170;40;20072;-86
2021/07/19 06:06:03;;;;;;;11.43;5.28;;;;;;;20.02;68.73;100115.91;2187539;40;20032;-84
2021/07/19 06:07:34;;;;;;;8.30;4.30;;;;;;;20.02;68.99;100116.78;2187959;40;20261;-84
2021/07/19 06:09:07;;;;;;;10.57;5.18;;;;;;;20.04;68.57;100124.69;2191526;40;20036;-85
2021/07/19 06:10:40;;;;;;;12.13;4.80;;;;;;;20.04;68.64;100117.38;2191581;40;20064;-85
2021/07/19 06:12:13;;;;;;;10.20;4.70;;;;;;;20.10;68.57;100119.28;2190494;40;20043;-83
2021/07/19 06:13:45;;;;;;;12.60;4.80;;;;;;;20.14;68.54;100119.72;2187548;40;20035;-85
2021/07/19 06:15:17;;;;;;;11.15;4.53;;;;;;;20.21;68.45;100117.00;2188025;40;20046;-87
2021/07/19 06:16:50;;;;;;;11.05;5.32;;;;;;;20.26;67.93;100111.78;2187755;40;20032;-84
2021/07/19 06:18:22;;;;;;;12.07;4.97;;;;;;;20.25;67.98;100113.69;2186957;40;20057;-84
2021/07/19 06:19:53;;;;;;;11.07;4.65;;;;;;;20.29;67.82;100115.97;2187566;40;20086;-83
2021/07/19 06:21:25;;;;;;;8.30;4.30;;;;;;;20.31;67.61;100109.28;2188028;40;20069;-86
2021/07/19 06:23:01;;;;;;;7.95;3.53;;;;;;;20.35;67.48;100109.72;2188363;40;20127;-86
2021/07/19 06:24:32;;;;;;;11.07;4.47;;;;;;;20.36;67.35;100112.22;2187713;40;20043;-84
2021/07/19 06:26:06;;;;;;;10.80;4.65;;;;;;;20.40;67.28;100108.03;2187231;40;20050;-84
2021/07/19 06:27:37;;;;;;;11.38;5.30;;;;;;;20.42;67.24;100113.25;2185519;40;35114;-85
2021/07/19 06:29:09;;;;;;;10.82;4.90;;;;;;;20.47;67.10;100116.19;2189578;40;20028;-86
2021/07/19 06:30:41;;;;;;;8.65;4.80;;;;;;;20.49;67.00;100113.28;2190361;40;20091;-85
2021/07/19 06:32:12;;;;;;;9.10;5.45;;;;;;;20.53;66.78;100112.66;2189873;40;20107;-86
2021/07/19 06:33:44;;;;;;;8.85;4.57;;;;;;;20.58;66.59;100112.03;2190545;40;20047;-86
2021/07/19 06:35:15;;;;;;;9.55;4.40;;;;;;;20.61;66.37;100110.75;2188736;40;20122;-87
2021/07/19 06:36:47;;;;;;;12.50;4.88;;;;;;;20.65;66.35;100112.84;2187803;40;20046;-85
2021/07/19 06:38:18;;;;;;;10.95;4.88;;;;;;;20.71;66.36;100111.16;2188330;40;20046;-86
2021/07/19 06:39:49;;;;;;;10.23;5.13;;;;;;;20.73;66.07;100109.94;2188497;40;20485;-88
2021/07/19 06:41:22;;;;;;;15.65;5.75;;;;;;;20.77;66.15;100104.91;2187472;40;20237;-83
2021/07/19 06:42:54;;;;;;;13.60;6.13;;;;;;;20.76;66.15;100105.13;2187695;40;20598;-85
2021/07/19 06:44:26;;;;;;;15.40;5.18;;;;;;;20.77;66.03;100102.22;2187102;40;20046;-84
2021/07/19 06:45:58;;;;;;;13.40;5.88;;;;;;;20.81;65.61;100097.19;2187623;40;20459;-86
2021/07/19 06:47:29;;;;;;;9.13;4.82;;;;;;;20.86;65.72;100105.56;2188366;40;20032;-83
2021/07/19 06:49:00;;;;;;;9.55;5.50;;;;;;;20.94;65.55;100099.88;2188073;40;20042;-88
2021/07/19 06:50:31;;;;;;;8.50;4.20;;;;;;;21.00;65.41;100107.19;2188734;40;20044;-85
2021/07/19 06:52:04;;;;;;;11.85;5.63;;;;;;;21.09;65.29;100099.66;2188764;40;20043;-86
2021/07/19 06:53:36;;;;;;;11.70;5.88;;;;;;;21.15;64.99;100098.78;2187313;40;20478;-85
2021/07/19 06:55:09;;;;;;;13.73;6.13;;;;;;;21.16;64.87;100100.47;2188236;40;20415;-84
2021/07/19 06:56:43;;;;;;;13.38;5.30;;;;;;;21.19;64.79;100096.47;2189411;40;20038;-83
2021/07/19 06:58:14;;;;;;;11.40;6.32;;;;;;;21.17;64.46;100093.13;2191435;40;20047;-84
2021/07/19 06:59:46;;;;;;;8.93;5.00;;;;;;;21.19;64.69;100099.19;2191348;40;20055;-85
2021/07/19 07:01:17;;;;;;;7.45;4.95;;;;;;;21.33;64.38;100095.41;2191377;40;20043;-84
2021/07/19 07:02:49;;;;;;;8.65;4.68;;;;;;;21.51;63.98;100093.88;2190661;40;20039;-85
2021/07/19 07:04:21;;;;;;;9.32;4.00;;;;;;;21.66;63.61;100085.47;2189743;40;20044;-84
2021/07/19 07:05:53;;;;;;;8.70;4.22;;;;;;;21.83;63.02;100088.47;2191442;40;20051;-83
2021/07/19 07:07:24;;;;;;;12.27;5.53;;;;;;;21.89;62.65;100084.91;2191095;40;20028;-86
2021/07/19 07:08:58;;;;;;;14.15;4.30;;;;;;;21.89;62.75;100090.34;2196667;40;20030;-85
2021/07/19 07:10:31;;;;;;;12.02;4.07;;;;;;;22.00;62.64;100079.81;2197213;40;20027;-83
2021/07/19 07:12:04;;;;;;;19.58;4.45;;;;;;;22.16;62.29;100082.00;2197408;40;20043;-85
2021/07/19 07:13:37;;;;;;;6.40;3.70;;;;;;;22.31;62.04;100078.09;2197192;40;20483;-85
2021/07/19 07:15:10;;;;;;;6.55;3.65;;;;;;;22.48;61.64;100072.97;2191464;40;20032;-85
2021/07/19 07:16:41;;;;;;;10.43;4.03;;;;;;;22.65;61.09;100079.53;2194454;40;20398;-86
2021/07/19 07:18:13;;;;;;;6.55;3.78;;;;;;;22.76;61.07;100075.25;2197541;40;20481;-89
2021/07/19 07:19:44;;;;;;;6.53;3.60;;;;;;;22.85;60.95;100084.81;2196194;40;20195;-86
2021/07/19 07:21:16;;;;;;;7.05;3.55;;;;;;;22.93;60.60;100078.19;2196735;40;20038;-85
2021/07/19 07:22:48;;;;;;;10.88;4.72;;;;;;;23.07;60.22;100087.06;2196303;40;20530;-87
2021/07/19 07:24:20;;;;;;;10.25;3.55;;;;;;;23.19;59.71;100081.75;2196708;40;20035;-85
2021/07/19 07:25:51;;;;;;;9.13;3.55;;;;;;;23.30;59.65;100080.97;2201484;40;20079;-85
2021/07/19 07:27:25;;;;;;;8.45;3.30;;;;;;;23.34;59.20;100074.00;2189270;40;20099;-86
2021/07/19 07:28:57;;;;;;;7.88;3.20;;;;;;;23.37;59.17;100080.88;2195837;40;20035;-86
2021/07/19 07:30:29;;;;;;;10.20;3.65;;;;;;;23.41;59.04;100082.09;2196580;40;20035;-84
2021/07/19 07:32:00;;;;;;;7.10;3.25;;;;;;;23.44;59.19;100075.34;2188965;40;20091;-84
2021/07/19 07:33:31;;;;;;;8.65;3.70;;;;;;;23.53;58.79;100074.78;2189622;40;20039;-84
2021/07/19 07:35:04;;;;;;;8.70;3.47;;;;;;;23.70;58.47;100085.09;2170424;41;20029;-84
2021/07/19 07:36:35;;;;;;;7.50;3.85;;;;;;;23.85;58.40;100076.50;2170539;41;20048;-82
2021/07/19 07:38:07;;;;;;;6.47;3.28;;;;;;;23.93;57.39;100076.16;2171103;41;20044;-83
2021/07/19 07:39:41;;;;;;;9.85;5.13;;;;;;;23.81;57.60;100075.28;2172366;41;20034;-85
2021/07/19 07:41:12;;;;;;;8.82;4.22;;;;;;;23.81;57.57;100075.28;2172461;41;20033;-83
2021/07/19 07:42:45;;;;;;;8.57;3.58;;;;;;;23.93;57.57;100070.69;2175504;41;20052;-84
2021/07/19 07:44:17;;;;;;;8.07;3.38;;;;;;;24.07;57.02;100084.16;2176432;40;20029;-80
2021/07/19 07:45:51;;;;;;;6.32;3.58;;;;;;;24.05;56.99;100076.22;2176191;40;20095;-81
2021/07/19 07:47:23;;;;;;;8.50;3.17;;;;;;;24.11;56.94;100077.19;2173390;41;20103;-83
2021/07/19 07:48:54;;;;;;;5.70;2.75;;;;;;;24.17;56.92;100076.22;2175009;41;20055;-81
2021/07/19 07:50:26;;;;;;;6.90;2.72;;;;;;;24.34;56.60;100076.41;2181663;40;20106;-82
2021/07/19 07:51:58;;;;;;;7.03;3.20;;;;;;;24.51;55.88;100073.81;2196292;40;20292;-83
2021/07/19 07:53:30;;;;;;;5.43;2.92;;;;;;;24.70;55.44;100071.00;2192711;40;20043;-82
2021/07/19 07:55:01;;;;;;;6.78;3.60;;;;;;;24.83;55.19;100069.91;2193184;40;20020;-83
2021/07/19 07:56:34;;;;;;;7.53;3.40;;;;;;;24.97;54.70;100067.75;2193274;40;20042;-85